Time;durP1;ratioP1;P1;durP2;ratioP2;P2;SDS_P1;SDS_P2;PMS_P1;PMS_P2;Temp;Humidity;BMP_temperature;BMP_pressure;BME280_temperature;BME280_humidity;BME280_pressure;Samples;Min_cycle;Max_cycle;Signal;HPM_P1;HPM_P2
2022/01/07 00:00:53;;;;;;;20.83;4.72;;;;;;;;;;5054809;28;20090;-76
2022/01/07 00:03:22;;;;;;;21.77;4.72;;;;;;;;;;5054154;28;20067;-75
2022/01/07 00:05:49;;;;;;;24.20;4.53;;;;;;;;;;5052741;28;20021;-75
2022/01/07 00:08:17;;;;;;;25.67;5.40;;;;;;;;;;5054791;28;20013;-76
2022/01/07 00:10:44;;;;;;;25.40;5.63;;;;;;;;;;5054597;28;20023;-78
2022/01/07 00:13:11;;;;;;;22.52;4.78;;;;;;;;;;5054453;28;20044;-77
2022/01/07 00:15:38;;;;;;;23.02;5.05;;;;;;;;;;5053306;28;20420;-79
2022/01/07 00:18:06;;;;;;;26.90;5.00;;;;;;;;;;5054621;28;20108;-77
2022/01/07 00:20:33;;;;;;;22.65;4.70;;;;;;;;;;5054535;28;20025;-79
2022/01/07 00:23:00;;;;;;;25.45;5.13;;;;;;;;;;5054329;28;20056;-79
2022/01/07 00:25:27;;;;;;;25.05;5.75;;;;;;;;;;5054308;28;20020;-78
2022/01/07 00:27:54;;;;;;;23.63;4.93;;;;;;;;;;5052991;28;20509;-79
2022/01/07 00:30:22;;;;;;;23.27;4.55;;;;;;;;;;5054417;28;20389;-78
2022/01/07 00:32:49;;;;;;;27.25;5.38;;;;;;;;;;5053053;28;20371;-78
2022/01/07 00:35:16;;;;;;;20.77;4.80;;;;;;;;;;5054371;28;20021;-79
2022/01/07 00:37:44;;;;;;;27.05;5.03;;;;;;;;;;5053020;28;20029;-80
2022/01/07 00:40:13;;;;;;;26.23;4.93;;;;;;;;;;5053070;28;20116;-80
2022/01/07 00:42:40;;;;;;;23.70;5.15;;;;;;;;;;5052915;28;20048;-79
2022/01/07 00:45:07;;;;;;;27.13;4.75;;;;;;;;;;5052836;28;20036;-79
2022/01/07 00:47:34;;;;;;;25.65;5.93;;;;;;;;;;5054067;28;20053;-80
2022/01/07 00:50:02;;;;;;;30.10;5.60;;;;;;;;;;5054167;28;20100;-78
2022/01/07 00:52:29;;;;;;;26.25;5.60;;;;;;;;;;5053910;28;20033;-79
2022/01/07 00:54:56;;;;;;;30.20;5.80;;;;;;;;;;5052388;28;20025;-78
2022/01/07 00:57:24;;;;;;;28.67;6.07;;;;;;;;;;5054260;28;20021;-79
2022/01/07 00:59:51;;;;;;;28.23;5.97;;;;;;;;;;5052528;28;20387;-79
2022/01/07 01:02:18;;;;;;;27.13;5.25;;;;;;;;;;5052816;28;20025;-79
2022/01/07 01:04:45;;;;;;;28.65;5.10;;;;;;;;;;5052152;28;20072;-79
2022/01/07 01:07:13;;;;;;;23.75;5.07;;;;;;;;;;5052559;28;20115;-80
2022/01/07 01:09:41;;;;;;;25.95;5.60;;;;;;;;;;5052146;28;20499;-78
2022/01/07 01:12:08;;;;;;;25.13;5.80;;;;;;;;;;5052913;28;20390;-79
2022/01/07 01:14:36;;;;;;;25.02;4.78;;;;;;;;;;5053811;28;20017;-79
2022/01/07 01:17:03;;;;;;;28.08;5.95;;;;;;;;;;5053747;28;20094;-79
2022/01/07 01:19:30;;;;;;;22.70;5.28;;;;;;;;;;5052773;28;20512;-79
2022/01/07 01:21:58;;;;;;;23.80;5.00;;;;;;;;;;5053743;28;20021;-79
2022/01/07 01:24:25;;;;;;;26.80;4.65;;;;;;;;;;5053821;28;20025;-79
2022/01/07 01:26:52;;;;;;;25.75;4.80;;;;;;;;;;5053787;28;20079;-79
2022/01/07 01:29:21;;;;;;;26.45;5.18;;;;;;;;;;5052139;28;20104;-79
2022/01/07 01:31:48;;;;;;;29.30;6.18;;;;;;;;;;5053520;28;20041;-79
2022/01/07 01:34:16;;;;;;;24.15;4.50;;;;;;;;;;5052410;28;20079;-78
2022/01/07 01:36:43;;;;;;;26.40;5.47;;;;;;;;;;5052315;28;20047;-79
2022/01/07 01:39:12;;;;;;;24.08;4.72;;;;;;;;;;5053263;28;20096;-78
2022/01/07 01:41:40;;;;;;;26.40;5.30;;;;;;;;;;5053176;28;20044;-80
2022/01/07 01:44:07;;;;;;;26.95;5.60;;;;;;;;;;5051729;28;20032;-78
2022/01/07 01:46:34;;;;;;;22.33;4.55;;;;;;;;;;5052132;28;20036;-78
2022/01/07 01:49:02;;;;;;;23.88;5.10;;;;;;;;;;5053187;28;20029;-78
2022/01/07 01:51:29;;;;;;;22.10;4.85;;;;;;;;;;5053211;28;20021;-79
2022/01/07 01:53:56;;;;;;;30.17;5.00;;;;;;;;;;5051702;28;20055;-79
2022/01/07 01:56:23;;;;;;;27.27;4.80;;;;;;;;;;5051790;28;20040;-79
2022/01/07 01:58:51;;;;;;;22.85;5.13;;;;;;;;;;5051798;28;20037;-78
2022/01/07 02:01:18;;;;;;;25.00;4.80;;;;;;;;;;5053174;28;20021;-79
2022/01/07 02:03:45;;;;;;;27.67;5.78;;;;;;;;;;5051588;28;20052;-79
2022/01/07 02:06:12;;;;;;;22.60;4.97;;;;;;;;;;5051633;28;20052;-79
2022/01/07 02:08:39;;;;;;;22.73;4.80;;;;;;;;;;5053328;28;20021;-78
2022/01/07 02:11:06;;;;;;;25.42;5.65;;;;;;;;;;5051676;28;20017;-79
2022/01/07 02:13:34;;;;;;;28.17;5.72;;;;;;;;;;5051866;28;20021;-79
2022/01/07 02:16:01;;;;;;;23.95;5.22;;;;;;;;;;5052718;28;20029;-79
2022/01/07 02:18:28;;;;;;;28.33;4.97;;;;;;;;;;5051396;28;20108;-79
2022/01/07 02:20:55;;;;;;;25.40;5.78;;;;;;;;;;5053127;28;20017;-78
2022/01/07 02:23:22;;;;;;;27.15;5.05;;;;;;;;;;5052923;28;20029;-82
2022/01/07 02:25:50;;;;;;;22.25;4.78;;;;;;;;;;5053012;28;20486;-79
2022/01/07 02:28:17;;;;;;;28.15;6.05;;;;;;;;;;5053819;28;20056;-80
2022/01/07 02:30:45;;;;;;;22.65;4.38;;;;;;;;;;5056855;28;20017;-78
2022/01/07 02:33:12;;;;;;;26.85;5.10;;;;;;;;;;5055294;28;20029;-79
2022/01/07 02:35:45;;;;;;;27.83;5.22;;;;;;;;;;5056732;28;20028;-79
2022/01/07 02:38:15;;;;;;;18.08;4.32;;;;;;;;;;5055167;28;20513;-81
2022/01/07 02:40:42;;;;;;;26.33;5.20;;;;;;;;;;5056795;28;20021;-80
2022/01/07 02:43:09;;;;;;;23.13;5.68;;;;;;;;;;5054992;28;20199;-81
2022/01/07 02:45:37;;;;;;;20.90;4.78;;;;;;;;;;5056523;28;20549;-78
2022/01/07 02:48:04;;;;;;;27.58;5.10;;;;;;;;;;5056005;28;20017;-78
2022/01/07 02:50:36;;;;;;;27.38;6.05;;;;;;;;;;5056143;28;20032;-79
2022/01/07 02:53:07;;;;;;;28.92;6.07;;;;;;;;;;5056289;28;20040;-79
2022/01/07 02:55:34;;;;;;;20.40;5.15;;;;;;;;;;5055980;28;20100;-79
2022/01/07 02:58:02;;;;;;;26.83;6.60;;;;;;;;;;5056095;28;20473;-78
2022/01/07 03:00:29;;;;;;;31.52;6.47;;;;;;;;;;5055922;28;20078;-78
2022/01/07 03:02:57;;;;;;;26.75;5.50;;;;;;;;;;5055556;28;20460;-79
2022/01/07 03:05:24;;;;;;;23.73;5.68;;;;;;;;;;5054427;28;20032;-78
2022/01/07 03:07:51;;;;;;;25.92;5.55;;;;;;;;;;5055675;28;20040;-76
2022/01/07 03:10:19;;;;;;;28.65;5.75;;;;;;;;;;5054383;28;20485;-76
2022/01/07 03:12:47;;;;;;;27.23;6.28;;;;;;;;;;5054264;28;20492;-77
2022/01/07 03:15:17;;;;;;;24.17;5.82;;;;;;;;;;5055680;28;20044;-77
2022/01/07 03:17:43;;;;;;;;;;;;;;;;;;5055948;28;20021;-77
2022/01/07 03:20:13;;;;;;;22.75;4.72;;;;;;;;;;5055855;28;19909;-77
2022/01/07 03:22:40;;;;;;;19.10;4.57;;;;;;;;;;5055541;28;20025;-78
2022/01/07 03:25:07;;;;;;;23.80;5.50;;;;;;;;;;5055522;28;20021;-79
2022/01/07 03:27:35;;;;;;;21.95;4.47;;;;;;;;;;5055307;28;20092;-78
2022/01/07 03:30:02;;;;;;;23.90;5.60;;;;;;;;;;5055452;28;20025;-78
2022/01/07 03:32:29;;;;;;;22.13;5.05;;;;;;;;;;5055383;28;20434;-78
2022/01/07 03:34:57;;;;;;;25.98;5.57;;;;;;;;;;5054288;28;20086;-79
2022/01/07 03:37:24;;;;;;;30.02;5.88;;;;;;;;;;5055043;28;20031;-78
2022/01/07 03:39:51;;;;;;;23.63;5.78;;;;;;;;;;5053833;28;20025;-76
2022/01/07 03:42:18;;;;;;;19.58;4.43;;;;;;;;;;5055058;28;20021;-77
2022/01/07 03:44:45;;;;;;;25.08;4.72;;;;;;;;;;5054981;28;20040;-76
2022/01/07 03:47:13;;;;;;;20.25;4.20;;;;;;;;;;5054815;28;20484;-77
2022/01/07 03:49:40;;;;;;;18.98;4.00;;;;;;;;;;5053545;28;20040;-78
2022/01/07 03:52:07;;;;;;;21.95;4.38;;;;;;;;;;5054886;28;20443;-76
2022/01/07 03:54:34;;;;;;;23.25;4.70;;;;;;;;;;5053614;28;20440;-77
2022/01/07 03:57:02;;;;;;;27.15;4.40;;;;;;;;;;5054849;28;20074;-77
2022/01/07 03:59:30;;;;;;;22.30;4.45;;;;;;;;;;5054950;28;20021;-76
2022/01/07 04:01:57;;;;;;;22.60;5.15;;;;;;;;;;5054976;28;20028;-77
2022/01/07 04:04:24;;;;;;;23.15;4.35;;;;;;;;;;5054442;28;20055;-77
2022/01/07 04:06:51;;;;;;;19.42;4.32;;;;;;;;;;5054677;28;20036;-75
2022/01/07 04:09:18;;;;;;;22.95;5.28;;;;;;;;;;5054460;28;20021;-78
2022/01/07 04:11:45;;;;;;;20.92;5.10;;;;;;;;;;5053540;28;20043;-78
2022/01/07 04:14:12;;;;;;;22.70;4.95;;;;;;;;;;5053269;28;20025;-77
2022/01/07 04:16:40;;;;;;;21.58;4.63;;;;;;;;;;5054749;28;20028;-78
2022/01/07 04:19:07;;;;;;;23.05;5.45;;;;;;;;;;5053569;28;20025;-79
2022/01/07 04:21:34;;;;;;;24.67;5.10;;;;;;;;;;5054603;28;20029;-79
2022/01/07 04:24:01;;;;;;;24.65;5.45;;;;;;;;;;5054942;28;20029;-78
2022/01/07 04:26:28;;;;;;;21.67;5.70;;;;;;;;;;5053283;28;20503;-79
2022/01/07 04:28:55;;;;;;;22.45;5.70;;;;;;;;;;5054765;28;20386;-78
2022/01/07 04:31:22;;;;;;;20.67;4.32;;;;;;;;;;5053517;28;20028;-78
2022/01/07 04:33:50;;;;;;;23.70;5.65;;;;;;;;;;5054635;28;20017;-78
2022/01/07 04:36:17;;;;;;;28.02;5.20;;;;;;;;;;5053194;28;20025;-78
2022/01/07 04:38:46;;;;;;;26.38;5.10;;;;;;;;;;5054254;28;20500;-78
2022/01/07 04:41:14;;;;;;;27.42;6.45;;;;;;;;;;5052980;28;20029;-79
2022/01/07 04:43:41;;;;;;;24.80;5.18;;;;;;;;;;5053863;28;20100;-77
2022/01/07 04:46:08;;;;;;;31.02;5.95;;;;;;;;;;5052923;28;20440;-78
2022/01/07 04:48:35;;;;;;;26.85;5.65;;;;;;;;;;5054022;28;20021;-79
2022/01/07 04:51:02;;;;;;;26.60;5.40;;;;;;;;;;5053794;28;20035;-78
2022/01/07 04:53:29;;;;;;;25.40;5.50;;;;;;;;;;5052790;28;20109;-78
2022/01/07 04:55:58;;;;;;;26.50;6.70;;;;;;;;;;5053149;28;20021;-78
2022/01/07 04:58:26;;;;;;;27.17;5.35;;;;;;;;;;5053892;28;20021;-77
2022/01/07 05:00:53;;;;;;;22.75;5.95;;;;;;;;;;5052631;28;20024;-77
2022/01/07 05:03:20;;;;;;;27.08;6.10;;;;;;;;;;5053354;28;20089;-78
2022/01/07 05:05:56;;;;;;;28.38;5.55;;;;;;;;;;5052279;28;20020;-78
2022/01/07 05:08:23;;;;;;;32.30;6.15;;;;;;;;;;5052163;28;20029;-78
2022/01/07 05:10:50;;;;;;;28.02;6.20;;;;;;;;;;5053461;28;20218;-77
2022/01/07 05:13:17;;;;;;;37.78;6.65;;;;;;;;;;5052087;28;20036;-78
2022/01/07 05:15:44;;;;;;;27.70;5.70;;;;;;;;;;5053297;28;20049;-77
2022/01/07 05:18:11;;;;;;;29.60;6.03;;;;;;;;;;5053453;28;20052;-78
2022/01/07 05:20:39;;;;;;;28.63;6.20;;;;;;;;;;5053639;28;20032;-78
2022/01/07 05:23:06;;;;;;;33.55;6.68;;;;;;;;;;5052204;28;20021;-78
2022/01/07 05:25:34;;;;;;;34.22;6.45;;;;;;;;;;5052209;28;20021;-77
2022/01/07 05:28:01;;;;;;;31.35;6.82;;;;;;;;;;5053404;28;20055;-77
2022/01/07 05:30:28;;;;;;;32.97;6.43;;;;;;;;;;5053882;28;20017;-79
2022/01/07 05:32:55;;;;;;;29.38;6.70;;;;;;;;;;5052344;28;20025;-78
2022/01/07 05:35:25;;;;;;;31.77;6.05;;;;;;;;;;5052078;28;20393;-78
2022/01/07 05:37:53;;;;;;;30.25;6.20;;;;;;;;;;5051988;28;20029;-78
2022/01/07 05:40:20;;;;;;;29.25;6.00;;;;;;;;;;5051392;28;20041;-77
2022/01/07 05:42:47;;;;;;;29.77;6.35;;;;;;;;;;5053180;28;20022;-78
2022/01/07 05:45:14;;;;;;;27.85;5.93;;;;;;;;;;5053019;28;20027;-78
2022/01/07 05:47:41;;;;;;;24.92;5.40;;;;;;;;;;5053049;28;20104;-77
2022/01/07 05:50:09;;;;;;;26.33;5.90;;;;;;;;;;5051793;28;20025;-77
2022/01/07 05:52:36;;;;;;;26.10;5.18;;;;;;;;;;5053018;28;20477;-76
2022/01/07 05:55:04;;;;;;;31.58;6.20;;;;;;;;;;5053203;28;20025;-79
2022/01/07 05:57:31;;;;;;;28.77;6.35;;;;;;;;;;5053020;28;20103;-79
2022/01/07 05:59:59;;;;;;;27.55;6.45;;;;;;;;;;5053139;28;20021;-77
2022/01/07 06:02:26;;;;;;;27.10;6.13;;;;;;;;;;5054210;28;20021;-78
2022/01/07 06:04:53;;;;;;;28.50;6.32;;;;;;;;;;5057514;28;20049;-77
2022/01/07 06:07:20;;;;;;;25.80;6.13;;;;;;;;;;5057366;28;20477;-79
2022/01/07 06:09:47;;;;;;;31.15;6.15;;;;;;;;;;5057484;28;20462;-79
2022/01/07 06:12:16;;;;;;;31.98;6.53;;;;;;;;;;5055943;28;20481;-77
2022/01/07 06:14:43;;;;;;;25.58;5.93;;;;;;;;;;5057207;28;20053;-77
2022/01/07 06:17:11;;;;;;;32.80;6.65;;;;;;;;;;5055692;28;20504;-78
2022/01/07 06:19:39;;;;;;;32.03;6.57;;;;;;;;;;5057100;28;20489;-78
2022/01/07 06:22:06;;;;;;;29.15;6.63;;;;;;;;;;5056999;28;20031;-77
2022/01/07 06:24:34;;;;;;;28.08;6.53;;;;;;;;;;5056835;28;20474;-77
2022/01/07 06:27:01;;;;;;;29.30;6.65;;;;;;;;;;5056609;28;20393;-77
2022/01/07 06:29:28;;;;;;;30.20;6.32;;;;;;;;;;5056870;28;20024;-77
2022/01/07 06:31:55;;;;;;;30.48;6.20;;;;;;;;;;5056820;28;20021;-78
2022/01/07 06:34:23;;;;;;;29.20;6.10;;;;;;;;;;5057149;28;20428;-77
2022/01/07 06:36:50;;;;;;;30.05;6.47;;;;;;;;;;5055628;28;20040;-78
2022/01/07 06:39:22;;;;;;;30.83;6.38;;;;;;;;;;5056623;28;20055;-79
2022/01/07 06:41:51;;;;;;;29.95;5.65;;;;;;;;;;5057139;28;20017;-77
2022/01/07 06:44:18;;;;;;;28.63;6.43;;;;;;;;;;5056366;28;20035;-77
2022/01/07 06:46:45;;;;;;;34.90;6.75;;;;;;;;;;5056379;28;20017;-78
2022/01/07 06:49:15;;;;;;;25.05;5.80;;;;;;;;;;5055401;28;20075;-77
2022/01/07 06:51:43;;;;;;;33.70;6.35;;;;;;;;;;5056322;28;20032;-78
2022/01/07 06:54:11;;;;;;;28.40;6.68;;;;;;;;;;5056493;28;20430;-78
2022/01/07 06:56:42;;;;;;;29.00;6.07;;;;;;;;;;5056523;28;20021;-79
2022/01/07 06:59:10;;;;;;;29.63;6.50;;;;;;;;;;5056063;28;20024;-79
2022/01/07 07:01:37;;;;;;;30.33;6.07;;;;;;;;;;5055124;28;20489;-78
2022/01/07 07:04:04;;;;;;;31.73;6.80;;;;;;;;;;5055884;28;20126;-77
2022/01/07 07:06:31;;;;;;;28.67;6.75;;;;;;;;;;5054597;28;20504;-78
2022/01/07 07:08:59;;;;;;;32.13;6.55;;;;;;;;;;5055890;28;20021;-78
2022/01/07 07:11:26;;;;;;;32.67;7.40;;;;;;;;;;5055923;28;20389;-78
2022/01/07 07:13:53;;;;;;;30.88;6.57;;;;;;;;;;5054458;28;20032;-78
2022/01/07 07:16:20;;;;;;;29.67;5.88;;;;;;;;;;5054446;28;20394;-79
2022/01/07 07:18:48;;;;;;;26.40;5.72;;;;;;;;;;5055639;28;20017;-77
2022/01/07 07:21:15;;;;;;;27.83;6.45;;;;;;;;;;5038168;28;20036;-77
2022/01/07 07:23:43;;;;;;;29.70;5.82;;;;;;;;;;5054230;28;20112;-78
2022/01/07 07:26:10;;;;;;;31.58;6.07;;;;;;;;;;5054147;28;20063;-78
2022/01/07 07:28:38;;;;;;;29.55;6.38;;;;;;;;;;5053927;28;20385;-79
2022/01/07 07:31:11;;;;;;;27.00;5.43;;;;;;;;;;5055311;28;20470;-76
2022/01/07 07:36:30;;;;;;;32.03;7.07;;;;;;;;;;5055227;28;20029;-77
2022/01/07 07:39:02;;;;;;;29.98;6.82;;;;;;;;;;5055159;28;20017;-77
2022/01/07 07:41:29;;;;;;;29.75;6.00;;;;;;;;;;5053868;28;20032;-77
2022/01/07 07:43:57;;;;;;;28.92;7.10;;;;;;;;;;5053418;28;20107;-77
2022/01/07 07:46:24;;;;;;;27.90;6.25;;;;;;;;;;5053524;28;20029;-76
2022/01/07 07:48:52;;;;;;;31.85;7.03;;;;;;;;;;5053652;28;20052;-77
2022/01/07 07:51:19;;;;;;;28.73;7.88;;;;;;;;;;5055053;28;20151;-77
2022/01/07 07:53:47;;;;;;;36.08;7.95;;;;;;;;;;5054893;28;20025;-77
2022/01/07 07:56:15;;;;;;;33.72;6.43;;;;;;;;;;5053439;28;20021;-76
2022/01/07 07:58:42;;;;;;;28.98;7.75;;;;;;;;;;5053354;28;20025;-77
2022/01/07 08:01:10;;;;;;;34.72;8.15;;;;;;;;;;5053514;28;20115;-76
2022/01/07 08:03:37;;;;;;;28.13;6.22;;;;;;;;;;5053370;28;20079;-75
2022/01/07 08:06:04;;;;;;;31.83;6.68;;;;;;;;;;5054407;28;20028;-75
2022/01/07 08:08:34;;;;;;;33.33;7.63;;;;;;;;;;5053245;28;20025;-76
2022/01/07 08:11:04;;;;;;;26.30;6.85;;;;;;;;;;5054415;28;20067;-76
2022/01/07 08:15:58;;;;;;;31.35;8.23;;;;;;;;;;5053131;28;20079;-76
2022/01/07 08:16:19;;;;;;;29.60;6.93;;;;;;;;;;5054452;28;20063;-77
2022/01/07 08:18:50;;;;;;;34.92;6.72;;;;;;;;;;5054503;28;20017;-77
2022/01/07 08:21:18;;;;;;;28.83;6.43;;;;;;;;;;5054417;28;20028;-77
2022/01/07 08:23:46;;;;;;;32.63;7.00;;;;;;;;;;5054381;28;20092;-77
2022/01/07 08:26:14;;;;;;;33.03;7.20;;;;;;;;;;5052225;28;20033;-77
2022/01/07 08:28:52;;;;;;;30.10;6.18;;;;;;;;;;5054162;28;20021;-76
2022/01/07 08:36:34;;;;;;;32.53;6.82;;;;;;;;;;5054519;28;20108;-76
2022/01/07 08:39:01;;;;;;;28.25;6.35;;;;;;;;;;5052833;28;20029;-76
2022/01/07 08:41:30;;;;;;;31.00;6.55;;;;;;;;;;5054131;28;20032;-77
2022/01/07 08:43:58;;;;;;;29.73;6.45;;;;;;;;;;5052526;28;20029;-77
2022/01/07 08:46:25;;;;;;;27.83;6.90;;;;;;;;;;5053559;28;20370;-76
2022/01/07 08:48:52;;;;;;;35.08;7.40;;;;;;;;;;5052492;28;20400;-77
2022/01/07 08:51:19;;;;;;;26.05;5.85;;;;;;;;;;5052360;28;20056;-78
2022/01/07 08:53:47;;;;;;;31.50;6.38;;;;;;;;;;5052394;28;20049;-76
2022/01/07 08:56:16;;;;;;;33.00;6.55;;;;;;;;;;5052264;28;20045;-77
2022/01/07 08:58:44;;;;;;;29.35;6.13;;;;;;;;;;5052500;28;20021;-79
2022/01/07 09:01:11;;;;;;;27.30;6.53;;;;;;;;;;5052304;28;20025;-75
2022/01/07 09:03:38;;;;;;;28.85;6.03;;;;;;;;;;5053456;28;20387;-78
2022/01/07 09:06:05;;;;;;;33.17;7.75;;;;;;;;;;5053802;28;20021;-80
2022/01/07 09:08:32;;;;;;;30.98;5.90;;;;;;;;;;5052624;28;20481;-78
2022/01/07 09:11:00;;;;;;;25.33;6.35;;;;;;;;;;5052046;28;20554;-79
2022/01/07 09:13:27;;;;;;;36.83;7.10;;;;;;;;;;5052336;28;20057;-79
2022/01/07 09:15:54;;;;;;;30.33;7.10;;;;;;;;;;5052262;28;20017;-79
2022/01/07 09:18:21;;;;;;;30.50;6.60;;;;;;;;;;5052315;28;20028;-79
2022/01/07 09:20:49;;;;;;;30.92;6.50;;;;;;;;;;5053396;28;20052;-79
2022/01/07 09:23:17;;;;;;;32.17;6.40;;;;;;;;;;5052259;28;20109;-79
2022/01/07 09:25:45;;;;;;;31.35;5.88;;;;;;;;;;5053667;28;20048;-80
2022/01/07 09:28:12;;;;;;;32.75;6.10;;;;;;;;;;5053468;28;20462;-79
2022/01/07 09:30:39;;;;;;;33.53;6.72;;;;;;;;;;5053561;28;20386;-80
2022/01/07 09:33:06;;;;;;;24.98;6.75;;;;;;;;;;5053568;28;20474;-79
2022/01/07 09:35:33;;;;;;;33.72;6.72;;;;;;;;;;5053659;28;20021;-79
2022/01/07 09:38:03;;;;;;;30.55;6.85;;;;;;;;;;5052564;28;20056;-79
2022/01/07 09:40:30;;;;;;;30.38;7.22;;;;;;;;;;5052592;28;20056;-79
2022/01/07 09:43:01;;;;;;;34.33;6.55;;;;;;;;;;5053638;28;20478;-78
2022/01/07 09:45:29;;;;;;;29.85;6.53;;;;;;;;;;5052247;28;20112;-79
2022/01/07 09:47:57;;;;;;;29.17;6.35;;;;;;;;;;5051741;28;20082;-79
2022/01/07 09:50:25;;;;;;;33.95;6.93;;;;;;;;;;5053395;28;20017;-79
2022/01/07 09:52:53;;;;;;;23.63;6.53;;;;;;;;;;5052777;28;20436;-79
2022/01/07 09:55:20;;;;;;;28.30;5.97;;;;;;;;;;5051823;28;20764;-78
2022/01/07 09:57:47;;;;;;;26.10;5.95;;;;;;;;;;5052284;28;20047;-79
2022/01/07 10:00:14;;;;;;;24.25;6.40;;;;;;;;;;5053027;28;20031;-79
2022/01/07 10:03:11;;;;;;;28.25;6.00;;;;;;;;;;5051691;28;20031;-79
2022/01/07 10:05:45;;;;;;;27.20;6.80;;;;;;;;;;5052458;28;20041;-79
2022/01/07 10:08:19;;;;;;;32.55;7.25;;;;;;;;;;5053001;28;20063;-80
2022/01/07 10:10:47;;;;;;;33.03;6.68;;;;;;;;;;5053130;28;20050;-78
2022/01/07 10:13:19;;;;;;;27.58;7.32;;;;;;;;;;5052101;28;20029;-79
2022/01/07 10:15:46;;;;;;;30.63;6.70;;;;;;;;;;5053126;28;20021;-80
2022/01/07 10:18:16;;;;;;;28.88;6.53;;;;;;;;;;5053101;28;20056;-78
2022/01/07 10:20:47;;;;;;;32.28;6.82;;;;;;;;;;5053047;28;20021;-79
2022/01/07 10:23:15;;;;;;;29.30;5.95;;;;;;;;;;5051884;28;20025;-79
2022/01/07 10:25:44;;;;;;;30.30;6.30;;;;;;;;;;5052976;28;20104;-79
2022/01/07 10:28:13;;;;;;;31.50;6.80;;;;;;;;;;5051791;28;20390;-79
2022/01/07 10:30:47;;;;;;;31.42;6.93;;;;;;;;;;5051923;28;20056;-79
2022/01/07 10:33:19;;;;;;;31.33;7.40;;;;;;;;;;5051952;28;20028;-79
2022/01/07 10:35:47;;;;;;;36.05;7.60;;;;;;;;;;5053386;28;20021;-79
2022/01/07 10:38:19;;;;;;;37.50;6.63;;;;;;;;;;5052110;28;20025;-79
2022/01/07 10:40:47;;;;;;;31.25;7.15;;;;;;;;;;5053064;28;20021;-80
2022/01/07 10:43:19;;;;;;;39.10;7.00;;;;;;;;;;5051580;28;20029;-79
2022/01/07 10:45:46;;;;;;;33.63;8.10;;;;;;;;;;5052858;28;20382;-78
2022/01/07 10:48:14;;;;;;;37.60;7.93;;;;;;;;;;5052321;28;20025;-79
2022/01/07 10:50:42;;;;;;;37.67;7.82;;;;;;;;;;5055496;28;20024;-79
2022/01/07 10:53:18;;;;;;;34.58;7.50;;;;;;;;;;5055994;28;20025;-80
2022/01/07 10:56:03;;;;;;;34.55;6.35;;;;;;;;;;5056410;28;20025;-79
2022/01/07 10:58:30;;;;;;;32.78;6.97;;;;;;;;;;5056600;28;20082;-79
2022/01/07 11:00:57;;;;;;;33.10;7.53;;;;;;;;;;5055284;28;20500;-79
2022/01/07 11:03:25;;;;;;;35.17;7.05;;;;;;;;;;5056331;28;20049;-79
2022/01/07 11:05:52;;;;;;;37.20;7.78;;;;;;;;;;5056440;28;20031;-78
2022/01/07 11:08:19;;;;;;;35.35;7.78;;;;;;;;;;5056402;28;20021;-77
2022/01/07 11:10:47;;;;;;;36.97;6.82;;;;;;;;;;5056212;28;20024;-79
2022/01/07 11:13:14;;;;;;;33.92;7.10;;;;;;;;;;5055135;28;20059;-78
2022/01/07 11:15:42;;;;;;;39.97;8.23;;;;;;;;;;5056031;28;20025;-78
2022/01/07 11:18:09;;;;;;;36.15;6.75;;;;;;;;;;5056116;28;20092;-78
2022/01/07 11:20:36;;;;;;;37.70;7.88;;;;;;;;;;5054686;28;20025;-79
2022/01/07 11:23:04;;;;;;;33.72;7.18;;;;;;;;;;5054488;28;20031;-78
2022/01/07 11:25:32;;;;;;;33.85;7.50;;;;;;;;;;5054459;28;20033;-79
2022/01/07 11:28:00;;;;;;;30.63;5.85;;;;;;;;;;5055625;28;20391;-78
2022/01/07 11:30:35;;;;;;;35.33;6.57;;;;;;;;;;5054523;28;20025;-78
2022/01/07 11:33:15;;;;;;;29.60;6.75;;;;;;;;;;5055769;28;20351;-77
2022/01/07 11:35:45;;;;;;;34.63;6.50;;;;;;;;;;5054543;28;20028;-78
2022/01/07 11:38:16;;;;;;;34.10;7.82;;;;;;;;;;5055688;28;20025;-79
2022/01/07 11:40:45;;;;;;;32.10;7.13;;;;;;;;;;5054426;28;20390;-78
2022/01/07 11:43:15;;;;;;;33.30;7.47;;;;;;;;;;5054297;28;20025;-78
2022/01/07 11:45:43;;;;;;;30.17;6.13;;;;;;;;;;5054867;28;20032;-78
2022/01/07 11:48:36;;;;;;;32.88;6.63;;;;;;;;;;5054144;28;20037;-79
2022/01/07 11:51:03;;;;;;;37.78;6.47;;;;;;;;;;5055316;28;20056;-79
2022/01/07 11:53:30;;;;;;;33.97;6.57;;;;;;;;;;5055445;28;20094;-79
2022/01/07 11:56:01;;;;;;;28.23;6.25;;;;;;;;;;5053835;28;20045;-79
2022/01/07 11:58:39;;;;;;;29.60;6.25;;;;;;;;;;5055423;28;20043;-79
2022/01/07 12:01:06;;;;;;;37.45;6.90;;;;;;;;;;5053215;28;20033;-79
2022/01/07 12:03:38;;;;;;;30.55;6.90;;;;;;;;;;5053924;28;20119;-79
2022/01/07 12:06:27;;;;;;;30.42;6.50;;;;;;;;;;5055664;28;20021;-79
2022/01/07 12:09:05;;;;;;;29.40;6.57;;;;;;;;;;5055884;28;20508;-78
2022/01/07 12:11:35;;;;;;;34.72;6.40;;;;;;;;;;5055673;28;20021;-79
2022/01/07 12:14:03;;;;;;;28.08;6.25;;;;;;;;;;5054530;28;20052;-79
2022/01/07 12:16:31;;;;;;;29.17;6.18;;;;;;;;;;5055626;28;20021;-79
2022/01/07 12:19:07;;;;;;;36.80;7.30;;;;;;;;;;5055729;28;20048;-80
2022/01/07 12:21:37;;;;;;;28.08;6.25;;;;;;;;;;5054468;28;20028;-78
2022/01/07 12:24:07;;;;;;;29.63;6.95;;;;;;;;;;5053119;28;20021;-76
2022/01/07 12:26:35;;;;;;;38.28;8.32;;;;;;;;;;5053014;28;20059;-77
2022/01/07 12:29:02;;;;;;;28.83;5.95;;;;;;;;;;5054379;28;20482;-79
2022/01/07 12:31:29;;;;;;;29.08;6.68;;;;;;;;;;5052872;28;20508;-79
2022/01/07 12:33:57;;;;;;;31.35;6.22;;;;;;;;;;5052777;28;20021;-79
2022/01/07 12:36:35;;;;;;;29.10;6.70;;;;;;;;;;5054250;28;20025;-78
2022/01/07 12:39:07;;;;;;;34.45;6.22;;;;;;;;;;5052926;28;20048;-78
2022/01/07 12:41:45;;;;;;;28.35;6.03;;;;;;;;;;5052867;28;20422;-78
2022/01/07 12:44:12;;;;;;;31.33;6.43;;;;;;;;;;5052691;28;20025;-78
2022/01/07 12:46:40;;;;;;;24.38;5.90;;;;;;;;;;5052572;28;20029;-77
2022/01/07 12:49:08;;;;;;;33.92;6.55;;;;;;;;;;5054103;28;20025;-79
2022/01/07 12:51:36;;;;;;;27.95;6.28;;;;;;;;;;5053740;28;20443;-77
2022/01/07 12:54:06;;;;;;;38.60;7.55;;;;;;;;;;5053606;28;20024;-79
2022/01/07 12:56:34;;;;;;;26.90;6.15;;;;;;;;;;5054534;28;20021;-79
2022/01/07 12:59:12;;;;;;;39.55;7.78;;;;;;;;;;5054337;28;20025;-78
2022/01/07 13:01:39;;;;;;;34.28;7.70;;;;;;;;;;5054097;28;20529;-78
2022/01/07 13:04:07;;;;;;;18.17;4.90;;;;;;;;;;5053956;28;20406;-78
2022/01/07 13:06:45;;;;;;;8.90;2.08;;;;;;;;;;5053931;28;20100;-77
2022/01/07 13:09:14;;;;;;;2.95;0.93;;;;;;;;;;5053608;28;20025;-77
2022/01/07 13:11:41;;;;;;;7.63;1.20;;;;;;;;;;5053364;28;20389;-77
2022/01/07 13:14:10;;;;;;;4.20;1.23;;;;;;;;;;5052079;28;20445;-76
2022/01/07 13:16:38;;;;;;;3.53;0.75;;;;;;;;;;5053568;28;20033;-76
2022/01/07 13:19:06;;;;;;;3.60;1.02;;;;;;;;;;5053214;28;20431;-75
2022/01/07 13:21:35;;;;;;;3.45;0.60;;;;;;;;;;5053298;28;20083;-76
2022/01/07 13:24:02;;;;;;;4.80;0.80;;;;;;;;;;5053250;28;20470;-78
2022/01/07 13:26:31;;;;;;;3.42;0.82;;;;;;;;;;5051769;28;20371;-77
2022/01/07 13:28:59;;;;;;;4.00;1.05;;;;;;;;;;5052061;28;20086;-78
2022/01/07 13:31:31;;;;;;;4.20;1.10;;;;;;;;;;5053245;28;20092;-79
2022/01/07 13:33:58;;;;;;;4.38;1.20;;;;;;;;;;5053939;28;20021;-81
2022/01/07 13:36:35;;;;;;;3.60;1.00;;;;;;;;;;5054898;28;20021;-81
2022/01/07 13:39:02;;;;;;;5.38;1.45;;;;;;;;;;5056499;28;20017;-79
2022/01/07 13:41:29;;;;;;;3.75;1.20;;;;;;;;;;5053943;28;20075;-80
2022/01/07 13:44:03;;;;;;;4.88;1.33;;;;;;;;;;5054916;28;20025;-81
2022/01/07 13:46:33;;;;;;;7.55;1.00;;;;;;;;;;5055101;28;20163;-82
2022/01/07 13:49:07;;;;;;;5.85;1.15;;;;;;;;;;5056673;28;20033;-79
2022/01/07 13:51:35;;;;;;;3.55;1.50;;;;;;;;;;5056448;28;20076;-82
2022/01/07 13:54:25;;;;;;;5.78;1.15;;;;;;;;;;5056985;28;20026;-80
2022/01/07 13:57:03;;;;;;;3.00;0.90;;;;;;;;;;5054701;28;20039;-81
2022/01/07 13:59:50;;;;;;;5.25;1.83;;;;;;;;;;5054610;28;20108;-82
2022/01/07 14:02:18;;;;;;;1.88;0.90;;;;;;;;;;5053134;28;20394;-83
2022/01/07 14:04:46;;;;;;;2.95;0.80;;;;;;;;;;5052405;28;20579;-83
2022/01/07 14:07:30;;;;;;;2.33;1.00;;;;;;;;;;5053680;28;20075;-83
2022/01/07 14:10:20;;;;;;;3.67;1.10;;;;;;;;;;5054427;28;20027;-82
2022/01/07 14:12:54;;;;;;;3.25;0.77;;;;;;;;;;5053586;28;20039;-81
2022/01/07 14:15:26;;;;;;;4.00;1.02;;;;;;;;;;5053830;28;20100;-82
2022/01/07 14:18:04;;;;;;;3.40;1.08;;;;;;;;;;5052692;28;20025;-82
2022/01/07 14:20:41;;;;;;;1.80;1.00;;;;;;;;;;5054172;28;20021;-84
2022/01/07 14:23:11;;;;;;;2.75;0.93;;;;;;;;;;5053782;28;20121;-83
2022/01/07 14:25:38;;;;;;;3.83;1.30;;;;;;;;;;5057596;28;20029;-84
2022/01/07 14:28:05;;;;;;;3.47;1.40;;;;;;;;;;5059149;28;20332;-84
2022/01/07 14:30:32;;;;;;;4.45;1.05;;;;;;;;;;5057382;28;20021;-83
2022/01/07 14:32:59;;;;;;;1.65;1.10;;;;;;;;;;5056054;28;20040;-84
2022/01/07 14:35:27;;;;;;;2.53;1.17;;;;;;;;;;5055943;28;20028;-84
2022/01/07 14:37:54;;;;;;;2.45;1.05;;;;;;;;;;5055813;28;20107;-84
2022/01/07 14:40:21;;;;;;;2.55;1.30;;;;;;;;;;5055777;28;20081;-83
2022/01/07 14:42:48;;;;;;;2.28;1.08;;;;;;;;;;5055629;28;20032;-82
2022/01/07 14:45:16;;;;;;;2.10;1.15;;;;;;;;;;5055601;28;20032;-82
2022/01/07 14:47:43;;;;;;;2.78;1.20;;;;;;;;;;5056699;28;20060;-83